createdAt,value
2022-11-06T00:10:21.253Z,86.0
2022-11-06T00:22:21.198Z,86.5
2022-11-06T00:34:21.196Z,86.1
2022-11-06T00:46:21.301Z,86.5
2022-11-06T00:58:21.311Z,86.8
2022-11-06T01:10:21.265Z,86.9
2022-11-06T01:22:21.187Z,86.1
2022-11-06T01:34:21.384Z,85.8
2022-11-06T01:46:21.277Z,86.0
2022-11-06T01:58:21.241Z,85.8
2022-11-06T02:10:21.279Z,86.5
2022-11-06T02:22:21.190Z,85.9
2022-11-06T02:34:21.282Z,85.6
2022-11-06T02:46:21.254Z,85.5
2022-11-06T02:58:21.258Z,85.6
2022-11-06T03:10:21.276Z,86.9
2022-11-06T03:22:21.194Z,87.6
2022-11-06T03:34:21.229Z,87.3
2022-11-06T03:46:21.293Z,86.6
2022-11-06T03:58:21.377Z,86.1
2022-11-06T04:10:21.183Z,86.4
2022-11-06T04:22:21.296Z,86.4
2022-11-06T04:34:21.303Z,87.7
2022-11-06T04:46:21.232Z,88.4
2022-11-06T04:58:21.192Z,87.9
2022-11-06T05:10:21.247Z,87.6
2022-11-06T05:22:21.185Z,88.2
2022-11-06T05:34:21.327Z,88.8
2022-11-06T05:46:46.920Z,88.9
2022-11-06T05:58:21.196Z,88.6
2022-11-06T06:10:21.303Z,88.8
2022-11-06T06:22:21.183Z,88.7
2022-11-06T06:34:21.203Z,89.6
2022-11-06T06:46:21.309Z,89.9
2022-11-06T06:58:21.677Z,89.4
2022-11-06T07:10:21.192Z,88.7
2022-11-06T07:22:29.546Z,86.8
2022-11-06T07:34:21.242Z,87.4
2022-11-06T07:46:21.191Z,87.4
2022-11-06T07:58:21.309Z,85.3
2022-11-06T08:10:21.288Z,82.5
2022-11-06T08:22:21.282Z,84.6
2022-11-06T08:34:21.306Z,84.6
2022-11-06T08:46:21.271Z,84.8
2022-11-06T08:58:21.197Z,83.9
2022-11-06T09:10:21.289Z,84.4
2022-11-06T09:22:21.259Z,83.8
2022-11-06T09:34:21.311Z,82.2
2022-11-06T09:46:21.287Z,79.5
2022-11-06T09:58:21.345Z,75.1
2022-11-06T10:10:21.187Z,74.8
2022-11-06T10:22:21.741Z,72.4
2022-11-06T10:34:21.251Z,72.0
2022-11-06T10:46:21.308Z,70.2
2022-11-06T10:58:21.327Z,71.6
2022-11-06T11:10:21.294Z,70.0
2022-11-06T11:22:21.196Z,70.6
2022-11-06T11:34:21.313Z,68.0
2022-11-06T11:46:21.242Z,65.0
2022-11-06T11:58:21.238Z,64.2
2022-11-06T12:10:21.325Z,61.4
2022-11-06T12:22:21.188Z,60.0
2022-11-06T12:34:21.195Z,60.7
2022-11-06T12:46:21.242Z,58.7
2022-11-06T12:58:21.205Z,58.5
2022-11-06T13:10:21.301Z,57.4
2022-11-06T13:22:21.286Z,58.7
2022-11-06T13:34:21.206Z,58.9
2022-11-06T13:46:21.207Z,58.1
2022-11-06T13:58:21.198Z,60.0
2022-11-06T14:10:21.286Z,61.9
2022-11-06T14:22:21.254Z,61.7
2022-11-06T14:34:21.218Z,64.0
2022-11-06T14:46:22.598Z,64.3
2022-11-06T14:58:21.299Z,67.1
2022-11-06T15:10:21.261Z,68.0
2022-11-06T15:22:21.281Z,69.8
2022-11-06T15:34:21.197Z,68.5
2022-11-06T15:46:21.298Z,69.9
2022-11-06T15:58:21.269Z,71.0
2022-11-06T16:10:21.196Z,71.8
2022-11-06T16:22:21.317Z,74.5
2022-11-06T16:34:21.248Z,75.9
2022-11-06T16:46:21.278Z,77.7
2022-11-06T16:58:21.313Z,79.8
2022-11-06T17:10:21.300Z,81.6
2022-11-06T17:22:21.211Z,79.4
2022-11-06T17:34:21.201Z,77.7
2022-11-06T17:46:21.307Z,76.7
2022-11-06T17:58:21.194Z,76.9
2022-11-06T18:10:22.888Z,78.1
2022-11-06T18:22:21.297Z,77.3
2022-11-06T18:34:21.493Z,76.7
2022-11-06T18:46:21.309Z,75.8
2022-11-06T18:58:21.273Z,75.7
2022-11-06T19:10:21.217Z,74.8
2022-11-06T19:22:21.188Z,74.9
2022-11-06T19:34:21.297Z,75.4
2022-11-06T19:46:25.100Z,75.2
2022-11-06T19:58:21.197Z,74.7
2022-11-06T20:10:21.313Z,75.3
2022-11-06T20:22:21.196Z,74.7
2022-11-06T20:34:21.256Z,74.9
2022-11-06T20:46:21.295Z,74.8
2022-11-06T20:58:21.280Z,76.0
2022-11-06T21:10:21.239Z,76.7
2022-11-06T21:22:21.279Z,77.9
2022-11-06T21:34:21.202Z,78.7
2022-11-06T21:46:21.271Z,80.1
2022-11-06T21:58:21.291Z,81.2
2022-11-06T22:10:21.188Z,82.2
2022-11-06T22:22:21.194Z,84.0
2022-11-06T22:34:21.293Z,84.9
2022-11-06T22:46:21.255Z,85.7
2022-11-06T22:58:21.295Z,86.6
2022-11-06T23:10:21.301Z,87.0
2022-11-06T23:22:21.285Z,87.5
2022-11-06T23:34:21.253Z,87.9
2022-11-06T23:46:21.297Z,88.4
2022-11-06T23:58:21.312Z,89.1
